METAR Data
IDs: Format: Raw Decoded Include TAF

Data at: 2138 UTC 24 Mar 2019

KT20 242115Z AUTO 18009KT 10SM SCT038 BKN049 27/19 A3001 RMK AO2 T02720188
KT20 242055Z AUTO 18009KT 10SM SCT038 OVC049 27/19 A3002 RMK AO2 T02730187
KT20 242035Z AUTO 18007KT 10SM SCT036 BKN043 OVC049 27/19 A3002 RMK AO2 T02700190
KT20 242015Z AUTO 18005KT 10SM SCT044 OVC050 27/19 A3003 RMK AO2 T02700188
KT20 241955Z AUTO 18008KT 10SM SCT035 SCT042 OVC048 27/19 A3004 RMK AO2 T02660190
KT20 241935Z AUTO 16006KT 10SM SCT034 OVC046 26/19 A3004 RMK AO2 T02600188
KT20 241915Z AUTO 21007KT 10SM OVC046 27/19 A3005 RMK AO2 T02700189
KT20 241855Z AUTO 19007KT 10SM SCT031 BKN044 27/19 A3005 RMK AO2 T02660188
KT20 241835Z AUTO 20006KT 10SM BKN027 BKN034 OVC042 26/19 A3006 RMK AO2 T02590190
KT20 241815Z AUTO 19005KT 10SM SCT027 BKN031 OVC040 26/20 A3007 RMK AO2 T02580196
KT20 241755Z AUTO 19006KT 10SM SCT022 SCT027 OVC040 26/20 A3007 RMK AO2 T02590197 10259 20176
KT20 241735Z AUTO 19008KT 10SM BKN022 BKN028 OVC036 24/19 A3009 RMK AO2 T02380188
KT20 241715Z AUTO 17009G16KT 10SM SCT023 BKN029 BKN034 25/19 A3010 RMK AO2 T02480190
KT20 241655Z AUTO 17008KT 10SM SCT017 OVC027 24/19 A3010 RMK AO2 T02350194
KT20 241635Z AUTO 19011G14KT 10SM BKN015 OVC020 23/19 A3011 RMK AO2 T02260193
KT20 241615Z AUTO 19009KT 10SM OVC013 22/19 A3011 RMK AO2 T02210192
KT20 241555Z AUTO 16008KT 10SM OVC009 22/20 A3011 RMK AO2 T02230196
KT20 241535Z AUTO 19007KT 10SM OVC007 21/20 A3011 RMK AO2 T02140199
KT20 241515Z AUTO 16008KT 10SM OVC005 21/20 A3011 RMK AO2 T02090203
KT20 241455Z AUTO 15006KT 7SM OVC005 20/20 A3012 RMK AO2 T01970197
KT20 241435Z AUTO 16004KT 5SM BR OVC005 19/19 A3012 RMK AO2 T01920192
KT20 241415Z AUTO 15003KT 5SM BR OVC005 19/19 A3011 RMK AO2 T01900190
KT20 241355Z AUTO 15003KT 3SM BR OVC003 19/19 A3010 RMK AO2 T01870187
KT20 241335Z AUTO 15004KT 1 1/2SM BR OVC003 19/19 A3010 RMK AO2 T01850185
KT20 241315Z AUTO 16004KT 1/2SM FG OVC003 18/18 A3008 RMK AO2 T01820182
KT20 241255Z AUTO 17004KT 1SM BR OVC003 18/18 A3008 RMK AO2 T01820182
KT20 241235Z AUTO 15006KT 5SM BR OVC003 18/18 A3007 RMK AO2 T01800180
KT20 241215Z AUTO 14005KT 5SM BR BKN003 BKN011 BKN021 18/18 A3007 RMK AO2 T01760176
KT20 241155Z AUTO 14005KT 7SM SCT011 BKN043 18/18 A3007 RMK AO2 T01780177 10193 20178
KT20 241135Z AUTO 14005KT 10SM SCT015 BKN043 18/18 A3007 RMK AO2 T01810180
KT20 241115Z AUTO 14005KT 10SM SCT021 OVC043 19/19 A3007 RMK AO2 T01870185
KT20 241055Z AUTO 15006KT 10SM OVC043 19/19 A3007 RMK AO2 T01880185
KT20 241035Z AUTO 16005KT 10SM SCT008 SCT021 OVC045 19/19 A3007 RMK AO2 T01880185
KT20 241015Z AUTO 16004KT 10SM BKN006 BKN021 OVC047 19/18 A3006 RMK AO2 T01870183
KT20 240955Z AUTO 15006KT 10SM OVC006 19/18 A3006 RMK AO2 T01880183
KT20 240935Z AUTO 16004KT 10SM OVC008 19/18 A3005 RMK AO2 T01870180
KT20 240915Z AUTO 16005KT 10SM OVC008 19/18 A3006 RMK AO2 T01900181
KT20 240855Z AUTO 16004KT 10SM OVC010 19/18 A3006 RMK AO2 T01900180
KT20 240835Z AUTO 15005KT 10SM OVC010 19/18 A3006 RMK AO2 T01900180
KT20 240815Z AUTO 16004KT 10SM OVC010 19/18 A3006 RMK AO2 T01910180
KT20 240755Z AUTO 17005KT 10SM OVC012 19/18 A3006 RMK AO2 T01910178
KT20 240735Z AUTO 17007KT 10SM OVC012 19/18 A3006 RMK AO2 T01920177
KT20 240715Z AUTO 16005KT 10SM OVC012 19/18 A3007 RMK AO2 T01920177
KT20 240655Z AUTO 15006KT 10SM OVC012 19/18 A3007 RMK AO2 T01920176
KT20 240635Z AUTO 16006KT 10SM OVC012 19/18 A3007 RMK AO2 T01920175
KT20 240615Z AUTO 16007KT 10SM BKN012 OVC050 19/18 A3007 RMK AO2 T01920175
KT20 240555Z AUTO 16010KT 10SM BKN014 OVC050 19/17 A3006 RMK AO2 T01930173 10228 20193 402470160
KT20 240535Z AUTO 15008KT 10SM BKN016 OVC050 19/17 A3007 RMK AO2 T01940173
KT20 240515Z AUTO 15007KT 10SM OVC016 20/17 A3008 RMK AO2 T01950172
KT20 240455Z AUTO 15008KT 10SM OVC018 20/17 A3008 RMK AO2 T01960172
KT20 240435Z AUTO 15007G14KT 10SM BKN018 BKN027 OVC050 20/17 A3009 RMK AO2 T01960171
KT20 240415Z AUTO 15011G14KT 10SM SCT020 SCT025 OVC050 20/17 A3008 RMK AO2 T01970171
KT20 240355Z AUTO 15009KT 10SM BKN023 BKN031 OVC049 20/17 A3009 RMK AO2 T02000171
KT20 240335Z AUTO 15007KT 10SM SCT023 BKN030 OVC045 20/17 A3010 RMK AO2 T02000171
KT20 240315Z AUTO 13008KT 10SM SCT023 BKN032 OVC047 20/17 A3010 RMK AO2 T02000171
KT20 240255Z AUTO 14006KT 10SM SCT020 BKN025 OVC032 20/17 A3010 RMK AO2 T02020171
KT20 240235Z AUTO 15009KT 10SM SCT018 SCT023 OVC034 21/17 A3009 RMK AO2 T02050171
KT20 240215Z AUTO 14007KT 10SM SCT019 SCT025 OVC036 21/17 A3007 RMK AO2 T02050170
KT20 240155Z AUTO 15012KT 10SM BKN024 OVC029 21/17 A3006 RMK AO2 T02090170
KT20 240135Z AUTO 14012G18KT 10SM SCT024 BKN035 OVC042 21/17 A3005 RMK AO2 T02120170
KT20 240115Z AUTO 16009KT 10SM OVC044 22/17 A3006 RMK AO2 T02150165
KT20 240055Z AUTO 16009G17KT 10SM OVC044 22/16 A3004 RMK AO2 T02170161
KT20 240035Z AUTO 16009G14KT 10SM SCT030 SCT044 OVC050 22/16 A3004 RMK AO2 T02210158
KT20 240015Z AUTO 16011G16KT 10SM OVC049 23/16 A3003 RMK AO2 T02250155
KT20 232355Z AUTO 17014G17KT 10SM OVC049 23/16 A3003 RMK AO2 LTG DSNT NE T02280158 10243 20228
KT20 232335Z AUTO 16010KT 10SM BKN043 OVC049 23/16 A3003 RMK AO2 T02300160
KT20 232315Z AUTO 16010KT 10SM OVC041 23/16 A3003 RMK AO2 T02310159
KT20 232255Z AUTO 17006KT 10SM OVC039 23/16 A3003 RMK AO2 T02310160
KT20 232235Z AUTO 16007G16KT 10SM OVC039 23/16 A3003 RMK AO2 T02320157
KT20 232215Z AUTO 16008KT 10SM BKN039 OVC046 24/16 A3003 RMK AO2 T02350157
KT20 232155Z AUTO 16013G18KT 10SM SCT041 OVC048 24/16 A3002 RMK AO2 T02360158
KT20 232135Z AUTO 15010G15KT 10SM SCT041 SCT048 OVC055 24/16 A3003 RMK AO2 T02390163
KT20 232115Z AUTO 15009KT 10SM SCT047 BKN055 OVC065 24/16 A3004 RMK AO2 T02420164
KT20 232055Z AUTO 15010KT 10SM SCT037 OVC048 24/16 A3004 RMK AO2 T02360164
KT20 232035Z AUTO 14009KT 10SM SCT050 BKN065 OVC070 24/16 A3004 RMK AO2 LTG DSNT NE T02400164
KT20 232015Z AUTO 16011G15KT 10SM SCT040 BKN055 OVC065 24/16 A3005 RMK AO2 T02380162
KT20 231955Z AUTO 15010KT 10SM SCT034 SCT044 OVC060 24/16 A3005 RMK AO2 T02380163
KT20 231935Z AUTO 15007KT 10SM SCT036 BKN046 OVC055 24/17 A3005 RMK AO2 T02350165
KT20 231915Z AUTO 17008KT 10SM SCT036 SCT043 OVC055 24/16 A3006 RMK AO2 T02350163
KT20 231855Z AUTO 16007KT 10SM SCT032 BKN044 OVC049 24/17 A3007 RMK AO2 T02350165
KT20 231835Z AUTO 16010KT 10SM BKN032 BKN042 OVC050 24/17 A3008 RMK AO2 T02360166
KT20 231815Z AUTO 17008KT 10SM BKN030 OVC042 24/17 A3008 RMK AO2 T02380166
KT20 231755Z AUTO 17012G17KT 10SM BKN028 OVC036 24/17 A3009 RMK AO2 T02410169 10247 20165
KT20 231735Z AUTO 16010G16KT 10SM BKN026 BKN032 OVC085 24/17 A3010 RMK AO2 T02420173
KT20 231715Z AUTO 17008KT 10SM BKN024 OVC032 23/18 A3010 RMK AO2 LTG DSNT N T02320175
KT20 231655Z AUTO 18010G15KT 10SM OVC022 23/17 A3011 RMK AO2 T02260170
KT20 231635Z AUTO 15010KT 10SM OVC022 22/17 A3011 RMK AO2 LTG DSNT N T02190167
KT20 231615Z AUTO 16010KT 10SM OVC024 22/17 A3011 RMK AO2 LTG DSNT N T02170166
KT20 231555Z AUTO 16011G14KT 10SM BKN024 BKN060 OVC080 22/17 A3011 RMK AO2 LTG DSNT N T02190168
KT20 231535Z AUTO 16008KT 10SM BKN060 OVC080 21/17 A3011 RMK AO2 T02070166
KT20 231515Z AUTO 14008KT 10SM OVC080 20/17 A3011 RMK AO2 T02010165
KT20 231455Z AUTO 13005KT 10SM OVC080 19/16 A3010 RMK AO2 LTG DSNT N T01910163
KT20 231435Z AUTO 12003KT 10SM SCT025 SCT055 OVC080 19/16 A3011 RMK AO2 LTG DSNT N T01850161
KT20 231415Z AUTO 00000KT 10SM SCT025 OVC055 18/16 A3011 RMK AO2 LTG DSNT N T01800160
KT20 231355Z AUTO 00000KT 10SM SCT025 BKN055 OVC075 18/16 A3010 RMK AO2 LTG DSNT N T01770158
KT20 231335Z AUTO 00000KT 10SM SCT025 SCT055 OVC075 18/16 A3009 RMK AO2 T01750158
KT20 231315Z AUTO 13003KT 10SM SCT025 OVC075 17/16 A3008 RMK AO2 LTG DSNT NE T01720158
KT20 231255Z AUTO 14004KT 10SM SCT027 OVC075 17/16 A3007 RMK AO2 T01700156
KT20 231235Z AUTO 13003KT 10SM OVC075 17/15 A3006 RMK AO2 T01680154
KT20 231215Z AUTO 00000KT 10SM OVC075 17/15 A3006 RMK AO2 T01660153
KT20 231155Z AUTO 12003KT 10SM OVC075 17/15 A3005 RMK AO2 T01650151 10180 20160
KT20 231135Z AUTO 00000KT 10SM OVC075 16/15 A3005 RMK AO2 T01620148
KT20 231115Z AUTO 00000KT 10SM BKN075 16/15 A3004 RMK AO2 T01600146
KT20 231055Z AUTO 10003KT 10SM BKN075 16/15 A3002 RMK AO2 T01620145
KT20 231035Z AUTO 14004KT 10SM BKN075 16/15 A3003 RMK AO2 T01640147
KT20 231015Z AUTO 16003KT 10SM CLR 17/15 A3003 RMK AO2 T01650145
KT20 230955Z AUTO 15005KT 10SM SCT075 17/14 A3002 RMK AO2 T01670142